Time;durP1;ratioP1;P1;durP2;ratioP2;P2;SDS_P1;SDS_P2;PMS_P1;PMS_P2;Temp;Humidity;BMP_temperature;BMP_pressure;BME280_temperature;BME280_humidity;BME280_pressure;Samples;Min_cycle;Max_cycle;Signal;HPM_P1;HPM_P2
2023/06/17 00:02:07;;;;;;;8.68;5.68;;;;;13.40;96346.00;;;;8414651;28;20223;-93
2023/06/17 00:06:15;;;;;;;10.52;5.97;;;;;13.40;96332.00;;;;8415479;28;20222;-93
2023/06/17 00:10:23;;;;;;;9.23;6.22;;;;;13.50;96332.00;;;;8415421;28;20252;-92
2023/06/17 00:14:32;;;;;;;8.75;6.10;;;;;13.50;96326.00;;;;8414639;28;20237;-94
2023/06/17 00:18:41;;;;;;;6.80;5.60;;;;;13.50;96322.00;;;;8414826;28;20615;-94
2023/06/17 00:22:52;;;;;;;10.88;5.95;;;;;13.60;96319.00;;;;8412014;28;20207;-94
2023/06/17 00:26:57;;;;;;;9.50;6.78;;;;;13.70;96312.00;;;;8415793;28;20680;-93
2023/06/17 00:31:05;;;;;;;6.65;5.65;;;;;13.80;96309.00;;;;8409418;28;20210;-93
2023/06/17 00:35:11;;;;;;;9.65;6.00;;;;;13.90;96305.00;;;;8415496;28;20190;-93
2023/06/17 00:39:17;;;;;;;7.57;6.28;;;;;13.90;96306.00;;;;8414362;28;20230;-94
2023/06/17 00:43:28;;;;;;;15.88;7.65;;;;;14.00;96301.00;;;;8413115;28;20257;-93
2023/06/17 00:47:42;;;;;;;9.38;6.93;;;;;14.10;96299.00;;;;8410936;28;20204;-94
2023/06/17 00:51:47;;;;;;;9.77;6.65;;;;;14.10;96295.00;;;;8413417;28;20275;-94
2023/06/17 00:56:12;;;;;;;10.10;7.03;;;;;14.10;96293.00;;;;8414000;28;20231;-94
2023/06/17 01:00:20;;;;;;;9.75;6.93;;;;;14.20;96290.00;;;;8428980;28;20664;-94
2023/06/17 01:04:28;;;;;;;9.68;6.30;;;;;14.20;96291.00;;;;8447220;28;20206;-94
2023/06/17 01:08:42;;;;;;;8.85;6.75;;;;;14.20;96283.00;;;;8448269;28;20187;-94
2023/06/17 01:12:49;;;;;;;11.93;7.72;;;;;14.30;96276.00;;;;8447929;28;20206;-94
2023/06/17 01:16:59;;;;;;;10.75;6.35;;;;;14.30;96267.00;;;;8446660;28;20191;-94
2023/06/17 01:21:08;;;;;;;10.40;6.75;;;;;14.30;96267.00;;;;8446885;28;20210;-93
2023/06/17 01:25:16;;;;;;;10.80;6.95;;;;;14.30;96264.00;;;;8446205;28;20260;-94
2023/06/17 01:29:22;;;;;;;11.38;6.22;;;;;14.30;96262.00;;;;8446203;28;20199;-94
2023/06/17 01:33:27;;;;;;;8.45;6.53;;;;;14.30;96257.00;;;;8446412;28;20198;-94
2023/06/17 01:37:39;;;;;;;9.10;6.80;;;;;14.30;96256.00;;;;8445622;28;20342;-94
2023/06/17 01:41:49;;;;;;;8.35;6.13;;;;;14.20;96254.00;;;;8447471;28;20225;-93
2023/06/17 01:45:59;;;;;;;9.93;6.25;;;;;14.10;96250.00;;;;8445277;28;20589;-93
2023/06/17 01:50:07;;;;;;;9.23;6.40;;;;;14.00;96255.00;;;;8445141;28;20209;-93
2023/06/17 01:54:16;;;;;;;8.00;5.93;;;;;14.00;96249.00;;;;8446017;28;20281;-93
2023/06/17 01:58:22;;;;;;;9.68;7.55;;;;;13.90;96253.00;;;;8444875;28;20198;-93
2023/06/17 02:02:28;;;;;;;10.55;6.38;;;;;13.80;96255.00;;;;8445249;28;20290;-94
2023/06/17 02:06:37;;;;;;;11.85;6.00;;;;;13.70;96249.00;;;;8446568;28;20194;-93
2023/06/17 02:10:40;;;;;;;9.90;6.50;;;;;13.50;96250.00;;;;8444382;28;20205;-93
2023/06/17 02:14:52;;;;;;;8.73;6.93;;;;;13.40;96262.00;;;;8445591;28;20198;-93
2023/06/17 02:18:56;;;;;;;12.68;7.13;;;;;13.30;96257.00;;;;8445361;28;20708;-93
2023/06/17 02:23:07;;;;;;;8.63;5.88;;;;;13.30;96256.00;;;;8442025;28;20213;-93
2023/06/17 02:27:16;;;;;;;8.55;6.18;;;;;13.30;96258.00;;;;8445358;28;20673;-93
2023/06/17 02:31:30;;;;;;;8.68;5.90;;;;;13.30;96260.00;;;;8450321;28;20208;-93
2023/06/17 02:35:36;;;;;;;12.13;6.25;;;;;13.30;96253.00;;;;8452706;28;20197;-94
2023/06/17 02:39:44;;;;;;;11.63;5.95;;;;;13.20;96254.00;;;;8451925;28;20229;-93
2023/06/17 02:43:50;;;;;;;14.60;6.00;;;;;13.10;96259.00;;;;8450487;28;20241;-93
2023/06/17 02:52:22;;;;;;;7.40;5.60;;;;;13.10;96255.00;;;;8451129;28;20194;-94
2023/06/17 02:56:27;;;;;;;11.98;6.18;;;;;13.10;96269.00;;;;8451692;28;20186;-93
2023/06/17 03:00:32;;;;;;;9.50;6.55;;;;;13.10;96265.00;;;;8416454;28;20222;-94
2023/06/17 03:04:41;;;;;;;7.57;5.93;;;;;13.00;96267.00;;;;8451127;28;20258;-94
2023/06/17 03:08:49;;;;;;;10.25;6.78;;;;;12.90;96267.00;;;;8451434;28;20200;-94
2023/06/17 03:12:55;;;;;;;9.35;6.35;;;;;12.80;96270.00;;;;8433750;28;20201;-94
2023/06/17 03:17:00;;;;;;;10.98;5.57;;;;;12.70;96273.00;;;;8450861;28;20180;-94
2023/06/17 03:21:09;;;;;;;9.75;6.72;;;;;12.60;96275.00;;;;8450060;28;20224;-94
2023/06/17 03:25:16;;;;;;;9.23;6.13;;;;;12.50;96268.00;;;;8444723;28;20218;-94
2023/06/17 03:33:42;;;;;;;11.02;6.53;;;;;12.30;96279.00;;;;8449721;28;20242;-94
2023/06/17 03:37:52;;;;;;;14.60;7.25;;;;;12.30;96270.00;;;;8449710;28;20203;-94
2023/06/17 03:41:58;;;;;;;9.75;5.97;;;;;12.30;96267.00;;;;8444915;28;20217;-94
2023/06/17 03:46:06;;;;;;;6.47;5.60;;;;;12.30;96279.00;;;;8449950;28;20263;-94
2023/06/17 03:50:13;;;;;;;11.63;6.80;;;;;12.20;96267.00;;;;8450097;28;20297;-93
2023/06/17 03:54:20;;;;;;;10.52;6.20;;;;;12.10;96263.00;;;;8450023;28;20236;-93
2023/06/17 03:58:29;;;;;;;9.50;6.40;;;;;12.10;96270.00;;;;8451918;28;20200;-94
2023/06/17 04:02:52;;;;;;;8.52;6.78;;;;;12.10;96267.00;;;;8452630;28;20318;-93
2023/06/17 04:07:00;;;;;;;8.02;5.72;;;;;12.10;96263.00;;;;8451099;28;20204;-94
2023/06/17 04:11:07;;;;;;;8.50;6.22;;;;;12.10;96270.00;;;;8448743;28;20201;-94
2023/06/17 04:15:12;;;;;;;9.20;6.65;;;;;12.00;96268.00;;;;8452447;28;20196;-94
2023/06/17 04:19:18;;;;;;;8.68;6.47;;;;;12.10;96274.00;;;;8432590;28;20206;-94
2023/06/17 04:23:25;;;;;;;9.85;6.40;;;;;12.20;96270.00;;;;8451246;28;20221;-94
2023/06/17 04:27:38;;;;;;;12.98;7.40;;;;;12.60;96265.00;;;;8452196;28;20265;-93
2023/06/17 04:31:56;;;;;;;11.02;7.00;;;;;13.30;96267.00;;;;8450136;28;20657;-95
2023/06/17 04:36:07;;;;;;;7.45;6.63;;;;;14.50;96270.00;;;;8450665;28;20198;-94
2023/06/17 04:40:14;;;;;;;9.73;6.47;;;;;15.60;96270.00;;;;8433731;28;20213;-95
2023/06/17 04:44:36;;;;;;;8.60;6.97;;;;;16.50;96275.00;;;;8451545;28;20272;-94
2023/06/17 04:48:44;;;;;;;7.78;6.00;;;;;16.90;96273.00;;;;8452823;28;20206;-94
2023/06/17 04:52:54;;;;;;;10.27;6.15;;;;;17.00;96276.00;;;;8453033;28;20214;-94
2023/06/17 04:57:02;;;;;;;8.57;6.55;;;;;17.30;96278.00;;;;8451782;28;20210;-94
2023/06/17 05:01:20;;;;;;;7.30;6.30;;;;;17.60;96278.00;;;;8452713;28;20388;-94
2023/06/17 05:05:26;;;;;;;7.93;6.60;;;;;18.00;96278.00;;;;8453377;28;20210;-94
2023/06/17 05:09:36;;;;;;;8.40;6.15;;;;;18.30;96277.00;;;;8450950;28;20191;-94
2023/06/17 05:13:48;;;;;;;12.05;5.60;;;;;18.60;96282.00;;;;8453476;28;20203;-95
2023/06/17 05:18:01;;;;;;;8.35;5.45;;;;;18.80;96277.00;;;;8460257;28;20188;-95
2023/06/17 05:22:12;;;;;;;7.45;6.05;;;;;19.00;96282.00;;;;8454490;28;20271;-96
2023/06/17 05:26:21;;;;;;;9.00;5.72;;;;;19.30;96282.00;;;;8452022;28;20211;-95
2023/06/17 05:30:34;;;;;;;8.25;5.90;;;;;19.50;96293.00;;;;8450122;28;20199;-94
2023/06/17 05:39:18;;;;;;;8.45;5.60;;;;;20.40;96290.00;;;;8447990;28;20328;-95
2023/06/17 05:43:28;;;;;;;5.57;5.07;;;;;21.10;96290.00;;;;8434265;28;20245;-94
2023/06/17 05:47:42;;;;;;;6.57;4.90;;;;;22.10;96289.00;;;;8453088;28;20580;-96
2023/06/17 05:51:53;;;;;;;5.63;5.07;;;;;23.30;96293.00;;;;8451326;28;20198;-95
2023/06/17 05:56:06;;;;;;;7.88;4.68;;;;;23.80;96294.00;;;;8451202;28;20200;-96
2023/06/17 06:00:14;;;;;;;5.72;5.15;;;;;23.60;96294.00;;;;8449897;28;20191;-96
2023/06/17 06:08:43;;;;;;;6.80;4.65;;;;;22.80;96297.00;;;;8443527;28;20211;-96
2023/06/17 06:12:49;;;;;;;6.82;5.22;;;;;22.50;96305.00;;;;8449197;28;20199;-94
2023/06/17 06:16:57;;;;;;;6.97;4.85;;;;;22.80;96308.00;;;;8446296;28;20198;-94
2023/06/17 06:21:02;;;;;;;7.60;5.40;;;;;22.80;96311.00;;;;8447746;28;20216;-94
2023/06/17 06:25:14;;;;;;;10.35;5.07;;;;;23.10;96313.00;;;;8447119;28;20285;-95
2023/06/17 06:29:20;;;;;;;6.68;5.05;;;;;23.60;96320.00;;;;8430916;28;20594;-96
2023/06/17 06:33:24;;;;;;;9.07;5.30;;;;;24.00;96319.00;;;;8446555;28;20204;-96
2023/06/17 06:37:31;;;;;;;8.07;5.50;;;;;24.50;96323.00;;;;8446741;28;20199;-94
2023/06/17 06:41:51;;;;;;;8.52;5.30;;;;;25.10;96325.00;;;;8446194;28;20306;-95
2023/06/17 06:45:56;;;;;;;6.45;5.20;;;;;25.90;96323.00;;;;8440095;28;20244;-95
2023/06/17 06:50:03;;;;;;;5.80;5.03;;;;;26.70;96330.00;;;;8448825;28;20242;-95
2023/06/17 06:54:12;;;;;;;5.82;4.82;;;;;27.20;96328.00;;;;8448790;28;20206;-96
2023/06/17 06:58:26;;;;;;;7.80;4.88;;;;;27.60;96329.00;;;;8449417;28;20195;-96
2023/06/17 07:02:30;;;;;;;6.47;5.47;;;;;28.00;96329.00;;;;8443059;28;20223;-96
2023/06/17 07:06:36;;;;;;;6.75;4.75;;;;;28.20;96339.00;;;;8447480;28;20215;-96
2023/06/17 07:10:41;;;;;;;6.53;4.70;;;;;28.70;96343.00;;;;8447118;28;20204;-95
2023/06/17 07:14:48;;;;;;;7.28;5.00;;;;;29.20;96342.00;;;;8446889;28;20209;-95
2023/06/17 07:18:57;;;;;;;6.68;4.88;;;;;29.70;96345.00;;;;8434119;28;20191;-96
2023/06/17 07:23:07;;;;;;;5.38;4.63;;;;;30.00;96346.00;;;;8436755;28;20268;-96
2023/06/17 07:27:18;;;;;;;5.10;4.60;;;;;30.00;96346.00;;;;8453890;28;20203;-95
2023/06/17 07:31:35;;;;;;;7.20;4.55;;;;;30.10;96355.00;;;;8451277;28;20234;-96
2023/06/17 07:40:04;;;;;;;4.85;4.10;;;;;30.00;96346.00;;;;8451673;28;20202;-96
2023/06/17 07:44:14;;;;;;;4.95;4.35;;;;;29.90;96337.00;;;;8452047;28;20222;-95
2023/06/17 07:48:33;;;;;;;9.48;4.20;;;;;29.70;96350.00;;;;8452169;28;20203;-96
2023/06/17 07:52:53;;;;;;;6.93;4.28;;;;;29.80;96342.00;;;;8454042;28;20203;-96
2023/06/17 07:57:11;;;;;;;5.90;4.15;;;;;29.50;96340.00;;;;8440508;28;20221;-96
2023/06/17 08:01:16;;;;;;;6.07;4.22;;;;;29.70;96343.00;;;;8451669;28;20210;-95
2023/06/17 08:05:25;;;;;;;5.50;4.30;;;;;29.80;96335.00;;;;8453406;28;20211;-95
2023/06/17 08:09:42;;;;;;;5.18;4.35;;;;;29.90;96327.00;;;;8449567;28;20206;-96
2023/06/17 08:14:01;;;;;;;5.22;4.45;;;;;29.90;96334.00;;;;8451605;28;20282;-96
2023/06/17 08:18:15;;;;;;;4.10;3.70;;;;;29.80;96342.00;;;;8453436;28;20206;-96
2023/06/17 08:22:22;;;;;;;7.45;4.45;;;;;29.80;96339.00;;;;8451203;28;20215;-96
2023/06/17 08:26:31;;;;;;;4.30;3.90;;;;;29.90;96345.00;;;;8449279;28;20207;-96
2023/06/17 08:30:44;;;;;;;5.57;4.53;;;;;29.70;96333.00;;;;8456032;28;20242;-96
2023/06/17 08:34:50;;;;;;;4.35;3.95;;;;;29.70;96336.00;;;;8451382;28;20183;-95
2023/06/17 08:39:08;;;;;;;5.93;4.45;;;;;29.70;96336.00;;;;8450160;28;20199;-95
2023/06/17 08:43:28;;;;;;;7.43;4.93;;;;;29.70;96330.00;;;;8448494;28;20215;-95
2023/06/17 08:47:37;;;;;;;5.50;3.70;;;;;30.20;96323.00;;;;8449851;28;20266;-96
2023/06/17 08:51:51;;;;;;;6.88;4.30;;;;;30.60;96324.00;;;;8450174;28;20199;-96
2023/06/17 08:56:29;;;;;;;6.55;4.20;;;;;31.00;96335.00;;;;8452030;28;20226;-96
2023/06/17 09:00:41;;;;;;;4.13;3.83;;;;;31.00;96319.00;;;;8451580;28;20274;-96
2023/06/17 09:04:55;;;;;;;5.75;4.82;;;;;31.30;96316.00;;;;8451769;28;20223;-95
2023/06/17 09:09:06;;;;;;;8.07;4.70;;;;;30.80;96320.00;;;;8451110;28;20191;-96
2023/06/17 09:18:03;;;;;;;5.03;4.63;;;;;30.10;96306.00;;;;8446254;28;20219;-96
2023/06/17 09:22:13;;;;;;;4.85;4.13;;;;;30.50;96305.00;;;;8448826;28;20249;-96
2023/06/17 09:26:28;;;;;;;11.52;4.82;;;;;31.30;96321.00;;;;8447971;28;20284;-96
2023/06/17 09:30:41;;;;;;;6.93;4.80;;;;;31.40;96310.00;;;;8447284;28;20232;-96
2023/06/17 09:35:02;;;;;;;5.40;4.40;;;;;31.50;96309.00;;;;8449833;28;20673;-96
2023/06/17 09:39:30;;;;;;;6.00;4.82;;;;;31.80;96303.00;;;;8434246;28;20186;-96
2023/06/17 09:43:47;;;;;;;5.38;4.85;;;;;32.00;96298.00;;;;8448832;28;20210;-96
2023/06/17 09:48:09;;;;;;;8.07;4.82;;;;;32.10;96297.00;;;;8452404;28;20218;-96
2023/06/17 09:52:41;;;;;;;8.43;5.00;;;;;31.80;96298.00;;;;8449098;28;20191;-96
2023/06/17 09:57:09;;;;;;;6.00;4.80;;;;;31.50;96290.00;;;;8451391;28;20194;-96
2023/06/17 10:05:44;;;;;;;6.35;4.95;;;;;31.10;96288.00;;;;8455243;28;20273;-96
2023/06/17 10:10:15;;;;;;;7.40;4.82;;;;;29.60;96293.00;;;;8455444;28;20195;-96
2023/06/17 10:19:41;;;;;;;8.07;5.07;;;;;31.50;96279.00;;;;8458214;28;20190;-96
2023/06/17 10:23:56;;;;;;;5.68;4.60;;;;;32.80;96279.00;;;;8447389;28;20221;-96
2023/06/17 10:28:09;;;;;;;4.78;4.15;;;;;33.40;96272.00;;;;8450454;28;20194;-96
2023/06/17 10:32:58;;;;;;;5.30;4.35;;;;;33.80;96273.00;;;;8451297;28;20207;-96
2023/06/17 10:37:40;;;;;;;8.15;4.80;;;;;31.70;96281.00;;;;8451412;28;20196;-96
2023/06/17 10:42:38;;;;;;;9.63;4.97;;;;;29.60;96272.00;;;;8449753;28;20260;-96
2023/06/17 10:56:06;;;;;;;6.78;4.70;;;;;29.00;96255.00;;;;8456812;28;20203;-96
2023/06/17 11:00:27;;;;;;;11.00;4.93;;;;;28.40;96260.00;;;;8452673;28;20196;-96
2023/06/17 11:04:48;;;;;;;6.60;5.40;;;;;30.00;96256.00;;;;8455290;28;20276;-96
2023/06/17 11:08:55;;;;;;;6.45;4.90;;;;;31.50;96248.00;;;;8457441;28;20200;-96
2023/06/17 11:13:02;;;;;;;5.35;4.53;;;;;32.70;96238.00;;;;8454471;28;20255;-96
2023/06/17 11:17:13;;;;;;;5.97;4.47;;;;;33.30;96240.00;;;;8456076;28;20215;-96
2023/06/17 11:21:22;;;;;;;6.40;4.68;;;;;33.60;96241.00;;;;8454007;28;20199;-96
2023/06/17 11:25:35;;;;;;;8.25;5.10;;;;;34.10;96243.00;;;;8455276;28;20551;-96
2023/06/17 11:29:58;;;;;;;8.80;5.30;;;;;34.00;96245.00;;;;8455997;28;20194;-96
2023/06/17 11:34:19;;;;;;;6.25;5.65;;;;;31.80;96246.00;;;;8437624;28;20196;-96
2023/06/17 11:38:36;;;;;;;6.53;5.30;;;;;30.10;96244.00;;;;8455011;28;20278;-95
2023/06/17 11:42:48;;;;;;;7.55;4.53;;;;;29.20;96239.00;;;;8449967;28;20235;-95
2023/06/17 11:47:19;;;;;;;9.02;4.95;;;;;29.60;96235.00;;;;8452502;28;20203;-96
2023/06/17 11:51:26;;;;;;;5.50;5.00;;;;;31.20;96230.00;;;;8453043;28;20206;-96
2023/06/17 11:55:39;;;;;;;7.57;5.13;;;;;32.30;96213.00;;;;8454829;28;20600;-96
2023/06/17 11:59:54;;;;;;;6.07;5.05;;;;;33.50;96217.00;;;;8452304;28;20203;-96
2023/06/17 12:04:10;;;;;;;5.32;4.60;;;;;33.10;96218.00;;;;8452467;28;20250;-96
2023/06/17 12:08:29;;;;;;;6.55;4.63;;;;;33.10;96214.00;;;;8455060;28;20208;-96
2023/06/17 12:12:49;;;;;;;5.70;5.13;;;;;32.30;96205.00;;;;8451351;28;20211;-96
2023/06/17 12:17:06;;;;;;;5.50;4.90;;;;;33.00;96197.00;;;;8449783;28;20204;-96
2023/06/17 12:21:30;;;;;;;5.72;5.07;;;;;33.70;96200.00;;;;8454402;28;20302;-96
2023/06/17 12:25:49;;;;;;;5.50;5.00;;;;;33.80;96197.00;;;;8450112;28;20226;-96
2023/06/17 12:30:04;;;;;;;5.75;4.93;;;;;33.50;96184.00;;;;8453030;28;20290;-96
2023/06/17 12:34:15;;;;;;;5.90;5.30;;;;;34.20;96179.00;;;;8455380;28;20214;-96
2023/06/17 12:38:32;;;;;;;5.40;4.90;;;;;34.50;96180.00;;;;8454067;28;20681;-96
2023/06/17 12:42:54;;;;;;;5.63;4.85;;;;;34.00;96180.00;;;;8454937;28;20259;-96
2023/06/17 13:24:50;;;;;;;5.35;4.78;;;;;32.40;96149.00;;;;8455787;28;20218;-95
2023/06/17 13:29:38;;;;;;;7.15;4.80;;;;;32.20;96157.00;;;;8454191;28;20537;-96
2023/06/17 13:39:16;;;;;;;7.45;4.53;;;;;33.20;96154.00;;;;8388152;22;20228;-71
2023/06/17 13:43:26;;;;;;;8.85;4.88;;;;;32.90;96157.00;;;;8349638;28;20319;-71
2023/06/17 13:47:37;;;;;;;5.63;4.72;;;;;31.60;96158.00;;;;8349147;28;20756;-74
2023/06/17 13:51:41;;;;;;;6.50;4.82;;;;;31.40;96161.00;;;;8348217;28;20211;-74
2023/06/17 13:55:46;;;;;;;7.47;5.00;;;;;31.60;96155.00;;;;8347308;28;20316;-74
2023/06/17 13:59:52;;;;;;;6.47;4.47;;;;;31.60;96156.00;;;;8350114;28;20193;-74
2023/06/17 14:03:58;;;;;;;4.95;4.55;;;;;31.90;96162.00;;;;8338000;28;20228;-74
2023/06/17 14:08:01;;;;;;;4.85;4.40;;;;;31.40;96158.00;;;;8334807;28;20319;-73
2023/06/17 14:12:08;;;;;;;5.15;4.65;;;;;30.90;96151.00;;;;8336558;28;20197;-73
2023/06/17 14:16:11;;;;;;;8.10;4.63;;;;;30.20;96150.00;;;;8330014;28;20792;-75
2023/06/17 14:20:15;;;;;;;5.75;4.88;;;;;29.50;96157.00;;;;8334555;28;20201;-74
2023/06/17 14:24:18;;;;;;;7.82;4.57;;;;;29.90;96139.00;;;;8316654;28;20311;-74
2023/06/17 14:28:25;;;;;;;8.50;4.60;;;;;30.30;96138.00;;;;8342653;28;20833;-75
2023/06/17 14:32:28;;;;;;;7.13;4.53;;;;;31.10;96136.00;;;;8344118;28;20707;-76
2023/06/17 14:36:34;;;;;;;5.72;4.40;;;;;31.50;96137.00;;;;8339740;28;20284;-75
2023/06/17 14:40:38;;;;;;;5.05;4.50;;;;;32.40;96128.00;;;;8320507;28;20285;-72
2023/06/17 14:44:43;;;;;;;5.35;4.15;;;;;32.00;96125.00;;;;8338837;28;20248;-75
2023/06/17 14:48:49;;;;;;;8.98;4.57;;;;;31.40;96127.00;;;;8340117;28;20304;-75
2023/06/17 14:52:52;;;;;;;8.20;4.38;;;;;32.10;96122.00;;;;8327107;28;20255;-76
2023/06/17 14:57:00;;;;;;;4.55;4.15;;;;;32.90;96116.00;;;;8335086;28;20224;-75
2023/06/17 15:01:06;;;;;;;5.75;4.30;;;;;33.00;96121.00;;;;8311458;28;20284;-74
2023/06/17 15:05:10;;;;;;;5.80;4.55;;;;;33.00;96135.00;;;;8321134;28;20221;-73
2023/06/17 15:09:25;;;;;;;4.63;4.20;;;;;33.00;96127.00;;;;8338070;28;20731;-75
2023/06/17 15:13:33;;;;;;;5.00;4.35;;;;;33.40;96126.00;;;;8338127;28;20233;-74
2023/06/17 15:17:44;;;;;;;4.85;3.90;;;;;33.40;96129.00;;;;8333097;28;20197;-75
2023/06/17 15:21:49;;;;;;;4.88;4.25;;;;;32.40;96119.00;;;;8334790;28;20197;-74
2023/06/17 15:25:55;;;;;;;6.55;4.38;;;;;32.40;96115.00;;;;8338393;28;20228;-72
2023/06/17 15:30:01;;;;;;;7.93;4.85;;;;;32.60;96124.00;;;;8333063;28;20202;-66
2023/06/17 15:34:07;;;;;;;6.70;4.15;;;;;33.00;96111.00;;;;8347925;28;20696;-69
2023/06/17 15:38:10;;;;;;;4.20;3.90;;;;;32.70;96119.00;;;;8338384;28;20212;-69
2023/06/17 15:42:13;;;;;;;4.20;3.80;;;;;32.80;96126.00;;;;8341529;28;20201;-70
2023/06/17 15:46:16;;;;;;;4.85;4.30;;;;;33.00;96120.00;;;;8340711;28;20312;-70
2023/06/17 15:50:21;;;;;;;7.15;4.63;;;;;32.40;96122.00;;;;8328745;28;20208;-70
2023/06/17 15:54:25;;;;;;;4.35;4.05;;;;;32.50;96115.00;;;;8332404;28;20663;-71
2023/06/17 15:58:31;;;;;;;8.45;4.55;;;;;32.10;96122.00;;;;8334783;28;20198;-68
2023/06/17 16:02:34;;;;;;;5.18;4.20;;;;;32.30;96123.00;;;;8332920;28;20331;-70
2023/06/17 16:06:38;;;;;;;5.50;4.63;;;;;31.90;96130.00;;;;8342584;28;20293;-71
2023/06/17 16:10:42;;;;;;;6.35;4.57;;;;;31.80;96130.00;;;;8307269;28;20201;-72
2023/06/17 16:14:47;;;;;;;5.05;4.57;;;;;31.80;96126.00;;;;8334999;28;20284;-71
2023/06/17 16:18:50;;;;;;;5.97;4.63;;;;;31.30;96131.00;;;;8337415;28;20201;-70
2023/06/17 16:22:59;;;;;;;6.35;4.53;;;;;30.60;96131.00;;;;8345184;28;20295;-70
2023/06/17 16:27:06;;;;;;;4.90;4.50;;;;;29.80;96125.00;;;;8352838;28;20775;-68
2023/06/17 16:31:12;;;;;;;7.82;4.80;;;;;29.40;96127.00;;;;8340047;28;20830;-69
2023/06/17 16:35:16;;;;;;;5.03;4.63;;;;;30.00;96124.00;;;;8350980;28;20283;-69
2023/06/17 16:39:26;;;;;;;5.22;4.50;;;;;30.70;96127.00;;;;8344125;28;20263;-69
2023/06/17 16:43:32;;;;;;;5.50;4.70;;;;;31.20;96123.00;;;;8344385;28;20527;-70
2023/06/17 16:47:37;;;;;;;5.75;4.72;;;;;31.60;96133.00;;;;8336367;28;20252;-72
2023/06/17 16:51:43;;;;;;;4.78;4.28;;;;;31.70;96138.00;;;;8309540;28;20667;-70
2023/06/17 16:55:48;;;;;;;5.18;4.78;;;;;31.80;96145.00;;;;8342790;28;20203;-71
2023/06/17 16:59:51;;;;;;;6.97;4.50;;;;;31.80;96146.00;;;;8331500;28;20287;-70
2023/06/17 17:03:55;;;;;;;7.45;4.65;;;;;31.80;96144.00;;;;8343777;28;20792;-70
2023/06/17 17:07:58;;;;;;;9.23;4.88;;;;;31.70;96153.00;;;;8349062;28;20232;-70
2023/06/17 17:12:03;;;;;;;5.80;4.70;;;;;31.40;96152.00;;;;8340922;28;20756;-73
2023/06/17 17:16:07;;;;;;;5.28;4.78;;;;;31.20;96151.00;;;;8349738;28;20207;-70
2023/06/17 17:20:12;;;;;;;6.15;5.22;;;;;31.20;96149.00;;;;8339602;28;20197;-68
2023/06/17 17:24:15;;;;;;;7.00;4.60;;;;;31.20;96151.00;;;;8330526;28;20197;-69
2023/06/17 17:28:23;;;;;;;5.82;4.90;;;;;31.20;96148.00;;;;8335838;28;20638;-69
2023/06/17 17:32:26;;;;;;;7.25;5.03;;;;;31.30;96146.00;;;;8344908;28;20232;-70
2023/06/17 17:36:31;;;;;;;6.80;4.72;;;;;31.30;96153.00;;;;8341644;28;20771;-72
2023/06/17 17:40:36;;;;;;;5.15;4.57;;;;;31.20;96162.00;;;;8342133;28;20279;-71
2023/06/17 17:44:43;;;;;;;4.93;4.28;;;;;31.00;96159.00;;;;8348977;28;20197;-69
2023/06/17 17:48:46;;;;;;;5.18;4.50;;;;;30.80;96158.00;;;;8315525;28;20202;-67
2023/06/17 17:52:50;;;;;;;6.25;4.63;;;;;30.60;96159.00;;;;8335450;28;20639;-72
2023/06/17 17:56:54;;;;;;;5.32;4.72;;;;;30.10;96161.00;;;;8341354;28;20287;-68
2023/06/17 18:00:59;;;;;;;5.70;5.03;;;;;29.50;96159.00;;;;8331366;28;20661;-69
2023/06/17 18:05:05;;;;;;;8.35;5.28;;;;;28.90;96163.00;;;;8337334;28;20306;-69
2023/06/17 18:09:09;;;;;;;5.20;4.72;;;;;28.30;96162.00;;;;8327970;28;20718;-71
2023/06/17 18:13:12;;;;;;;7.05;4.97;;;;;27.70;96168.00;;;;8341835;28;20232;-70
2023/06/17 18:17:17;;;;;;;12.55;4.72;;;;;27.20;96164.00;;;;8327061;28;20196;-68
2023/06/17 18:21:20;;;;;;;6.78;4.72;;;;;26.90;96174.00;;;;8327937;28;20209;-70
2023/06/17 18:25:23;;;;;;;11.40;5.32;;;;;26.50;96172.00;;;;8316593;28;20239;-69
2023/06/17 18:29:27;;;;;;;6.50;5.18;;;;;26.20;96171.00;;;;8337667;28;20284;-71
2023/06/17 18:33:31;;;;;;;7.25;5.20;;;;;26.00;96172.00;;;;8341409;28;20209;-69
2023/06/17 18:37:41;;;;;;;8.82;5.30;;;;;25.70;96170.00;;;;8338167;28;20300;-70
2023/06/17 18:41:46;;;;;;;7.35;5.35;;;;;25.40;96172.00;;;;8336853;28;20247;-71
2023/06/17 18:45:49;;;;;;;7.60;5.28;;;;;25.00;96180.00;;;;8329281;28;20266;-70
2023/06/17 18:49:54;;;;;;;10.32;5.97;;;;;24.60;96178.00;;;;8338393;28;20207;-70
2023/06/17 18:53:57;;;;;;;5.50;4.88;;;;;24.20;96179.00;;;;8343688;28;20232;-67
2023/06/17 18:58:01;;;;;;;6.95;5.43;;;;;23.70;96185.00;;;;8334165;28;20297;-69
2023/06/17 19:02:07;;;;;;;5.63;5.13;;;;;23.20;96184.00;;;;8314170;28;20781;-71
2023/06/17 19:06:12;;;;;;;6.28;5.03;;;;;22.70;96181.00;;;;8343020;28;20274;-69
2023/06/17 19:10:17;;;;;;;8.55;5.07;;;;;22.30;96190.00;;;;8339544;28;20284;-70
2023/06/17 19:14:21;;;;;;;7.50;5.88;;;;;21.80;96191.00;;;;8344943;28;20205;-70
2023/06/17 19:18:26;;;;;;;7.72;5.53;;;;;21.30;96196.00;;;;8330599;28;20197;-69
2023/06/17 19:22:32;;;;;;;18.30;8.95;;;;;20.90;96197.00;;;;8352810;28;20193;-68
2023/06/17 19:26:37;;;;;;;24.02;12.00;;;;;20.50;96195.00;;;;8346362;28;20260;-70
2023/06/17 19:30:45;;;;;;;11.63;8.25;;;;;20.10;96198.00;;;;8352763;28;20304;-68
2023/06/17 19:34:55;;;;;;;6.75;5.53;;;;;19.80;96199.00;;;;8350410;28;20653;-69
2023/06/17 19:39:04;;;;;;;37.00;22.13;;;;;19.60;96211.00;;;;8350983;28;20223;-69
2023/06/17 19:43:12;;;;;;;36.90;21.58;;;;;19.20;96204.00;;;;8340445;28;20293;-69
2023/06/17 19:47:18;;;;;;;15.75;7.60;;;;;19.00;96206.00;;;;8339395;28;20264;-68
2023/06/17 19:51:21;;;;;;;13.35;8.57;;;;;18.80;96208.00;;;;8326444;28;20647;-70
2023/06/17 19:55:30;;;;;;;25.58;12.45;;;;;18.50;96213.00;;;;8327674;28;20213;-67
2023/06/17 19:59:34;;;;;;;8.73;6.00;;;;;18.30;96215.00;;;;8343780;28;20236;-70
2023/06/17 20:03:40;;;;;;;24.88;13.93;;;;;18.00;96207.00;;;;8344567;28;20681;-70
2023/06/17 20:07:44;;;;;;;18.70;11.98;;;;;17.70;96205.00;;;;8342941;28;20221;-69
2023/06/17 20:12:00;;;;;;;16.70;11.90;;;;;17.40;96208.00;;;;8337334;28;20284;-69
2023/06/17 20:16:04;;;;;;;17.38;9.73;;;;;17.30;96211.00;;;;8333560;28;20205;-68
2023/06/17 20:20:08;;;;;;;20.90;11.15;;;;;17.10;96205.00;;;;8317722;28;20192;-70
2023/06/17 20:24:16;;;;;;;18.33;11.40;;;;;17.00;96207.00;;;;8341954;28;20280;-71
2023/06/17 20:28:20;;;;;;;19.33;11.63;;;;;16.80;96210.00;;;;8327570;28;20235;-68
2023/06/17 20:32:25;;;;;;;12.38;7.65;;;;;16.60;96206.00;;;;8342933;28;20292;-71
2023/06/17 20:36:31;;;;;;;9.38;6.65;;;;;16.50;96210.00;;;;8338131;28;20208;-71
2023/06/17 20:40:34;;;;;;;8.00;5.85;;;;;16.30;96205.00;;;;8342219;28;20213;-68
2023/06/17 20:44:39;;;;;;;11.10;7.50;;;;;16.20;96207.00;;;;8343683;28;20205;-68
2023/06/17 20:48:42;;;;;;;10.10;8.35;;;;;16.20;96211.00;;;;8328485;28;20260;-68
2023/06/17 20:52:49;;;;;;;12.13;9.15;;;;;16.10;96202.00;;;;8316233;28;20225;-70
2023/06/17 20:56:54;;;;;;;16.25;9.07;;;;;15.90;96206.00;;;;8335043;28;20193;-69
2023/06/17 21:01:05;;;;;;;11.60;5.78;;;;;15.70;96202.00;;;;8345679;28;20314;-70
2023/06/17 21:05:09;;;;;;;9.32;6.10;;;;;15.60;96199.00;;;;8338293;28;20224;-68
2023/06/17 21:09:15;;;;;;;17.88;10.88;;;;;15.40;96200.00;;;;8333429;28;20221;-68
2023/06/17 21:13:23;;;;;;;12.35;7.90;;;;;15.30;96196.00;;;;8340428;28;20193;-68
2023/06/17 21:17:27;;;;;;;16.17;10.00;;;;;15.20;96196.00;;;;8331943;28;20315;-70
2023/06/17 21:21:36;;;;;;;11.15;6.45;;;;;15.00;96199.00;;;;8341858;28;20188;-68
2023/06/17 21:25:40;;;;;;;8.52;6.28;;;;;14.90;96197.00;;;;8341542;28;20240;-69
2023/06/17 21:29:45;;;;;;;8.95;6.40;;;;;14.70;96200.00;;;;8335823;28;20270;-68
2023/06/17 21:33:50;;;;;;;8.50;5.97;;;;;14.60;96193.00;;;;8340213;28;20219;-69
2023/06/17 21:37:53;;;;;;;8.43;6.63;;;;;14.40;96184.00;;;;8331157;28;20265;-68
2023/06/17 21:42:00;;;;;;;9.73;6.70;;;;;14.30;96196.00;;;;8341988;28;20201;-70
2023/06/17 21:46:04;;;;;;;8.90;6.40;;;;;14.20;96196.00;;;;8337015;28;20675;-68
2023/06/17 21:50:10;;;;;;;9.38;6.53;;;;;14.20;96192.00;;;;8331448;28;20201;-69
2023/06/17 21:54:15;;;;;;;11.38;6.72;;;;;14.10;96202.00;;;;8342118;28;20204;-68
2023/06/17 21:58:18;;;;;;;10.43;6.32;;;;;14.20;96203.00;;;;8312042;28;20602;-71
2023/06/17 22:02:25;;;;;;;7.97;6.20;;;;;14.20;96199.00;;;;8330483;28;20909;-70
2023/06/17 22:06:33;;;;;;;8.73;6.22;;;;;14.10;96198.00;;;;8332914;28;20220;-70
2023/06/17 22:10:36;;;;;;;10.93;6.35;;;;;13.90;96192.00;;;;8325609;28;20278;-70
2023/06/17 22:14:39;;;;;;;9.65;6.93;;;;;13.80;96190.00;;;;8328255;28;20211;-70